TimeEST,TemperatureF,Dew PointF,Humidity,Sea Level PressureIn,VisibilityMPH,Wind Direction,Wind SpeedMPH,Gust SpeedMPH,PrecipitationIn,Events,Conditions,WindDirDegrees,DateUTC
12:15 AM,19.8,16.7,88,29.49,1.8,SW,21.9,28.8,N/A,Snow,Light Snow,230,2014-01-25 05:15:00
12:34 AM,19.9,17.2,89,29.48,1.8,SW,21.9,29.9,N/A,Snow,Light Snow,230,2014-01-25 05:34:00
12:55 AM,20.3,17.4,89,29.46,2.0,SW,24.2,34.5,N/A,Snow,Light Snow,230,2014-01-25 05:55:00
1:15 AM,20.3,17.6,89,29.44,1.8,SW,21.9,29.9,N/A,Snow,Light Snow,230,2014-01-25 06:15:00
1:34 AM,20.7,17.8,89,29.43,2.0,SW,23.0,29.9,N/A,Snow,Light Snow,220,2014-01-25 06:34:00
1:55 AM,20.8,18.0,89,29.41,2.0,SW,21.9,31.1,N/A,Snow,Light Snow,220,2014-01-25 06:55:00
2:15 AM,21.0,18.5,90,29.40,1.8,SW,24.2,32.2,N/A,Snow,Light Snow,220,2014-01-25 07:15:00
2:34 AM,21.0,18.5,90,29.39,2.0,SW,20.7,29.9,N/A,Snow,Light Snow,230,2014-01-25 07:34:00
2:55 AM,21.4,18.5,89,29.38,1.8,SW,18.4,29.9,N/A,Snow,Light Snow,230,2014-01-25 07:55:00
3:14 AM,21.6,18.9,89,29.38,2.5,SW,18.4,26.5,N/A,Snow,Light Snow,230,2014-01-25 08:14:00
3:35 AM,22.1,19.4,89,29.36,2.0,SW,18.4,26.5,N/A,Snow,Light Snow,230,2014-01-25 08:35:00
3:55 AM,22.3,19.9,91,29.35,1.5,SW,18.4,31.1,N/A,Snow,Light Snow,230,2014-01-25 08:55:00
4:14 AM,22.6,20.3,91,29.34,2.0,SW,20.7,26.5,N/A,Snow,Light Snow,230,2014-01-25 09:14:00
4:35 AM,22.8,20.5,91,29.33,2.5,SW,19.6,28.8,N/A,Snow,Light Snow,230,2014-01-25 09:35:00
4:55 AM,23.4,21.0,91,29.32,2.0,WSW,19.6,26.5,N/A,Snow,Light Snow,240,2014-01-25 09:55:00
5:14 AM,23.7,21.7,92,29.32,2.0,WSW,19.6,25.3,N/A,Snow,Light Snow,240,2014-01-25 10:14:00
5:35 AM,23.9,22.1,93,29.31,1.8,WSW,16.1,24.2,N/A,Snow,Light Snow,240,2014-01-25 10:35:00
5:54 AM,24.4,22.5,92,29.30,2.0,SW,16.1,27.6,N/A,Snow,Light Snow,230,2014-01-25 10:54:00
6:15 AM,24.8,22.6,91,29.30,3.0,WSW,19.6,28.8,N/A,Snow,Light Snow,240,2014-01-25 11:15:00
6:35 AM,25.0,23.0,92,29.29,2.5,WSW,17.3,25.3,N/A,Snow,Light Snow,240,2014-01-25 11:35:00
6:54 AM,25.3,23.4,92,29.29,3.0,WSW,16.1,24.2,N/A,Snow,Light Snow,240,2014-01-25 11:54:00
7:15 AM,25.5,23.7,93,29.30,2.0,West,12.7,19.6,N/A,Snow,Light Snow,260,2014-01-25 12:15:00
7:34 AM,26.2,24.4,93,29.31,1.2,West,16.1,20.7,N/A,Snow,Light Snow,270,2014-01-25 12:34:00
7:55 AM,26.1,24.6,94,29.32,2.5,West,9.2,-,N/A,Snow,Light Snow,260,2014-01-25 12:55:00
8:15 AM,26.1,24.3,93,29.32,10.0,WSW,9.2,-,N/A,,Overcast,250,2014-01-25 13:15:00
8:34 AM,26.4,24.6,93,29.32,7.0,West,10.4,-,N/A,Snow,Light Snow,260,2014-01-25 13:34:00
8:55 AM,26.4,22.8,86,29.32,10.0,West,10.4,-,N/A,,Overcast,260,2014-01-25 13:55:00
9:15 AM,27.3,21.4,78,29.32,10.0,West,11.5,-,N/A,,Overcast,270,2014-01-25 14:15:00
9:34 AM,27.5,19.2,71,29.33,10.0,West,11.5,18.4,N/A,,Overcast,280,2014-01-25 14:34:00
9:55 AM,26.4,20.7,79,29.34,5.0,West,18.4,23.0,N/A,Snow,Light Snow,270,2014-01-25 14:55:00
10:14 AM,26.2,21.9,84,29.35,3.0,West,17.3,21.9,N/A,Snow,Light Snow,280,2014-01-25 15:14:00
10:35 AM,25.0,22.3,89,29.35,0.5,West,26.5,33.4,N/A,Snow,Snow,280,2014-01-25 15:35:00
10:55 AM,24.3,14.9,68,29.37,1.2,WNW,19.6,29.9,N/A,,Haze,290,2014-01-25 15:55:00
11:15 AM,24.3,13.8,64,29.38,4.0,WNW,19.6,25.3,N/A,,Haze,290,2014-01-25 16:15:00
11:35 AM,23.9,15.6,71,29.39,1.0,NW,24.2,33.4,N/A,Snow,Light Snow,310,2014-01-25 16:35:00
11:54 AM,20.3,14.4,78,29.41,1.2,NW,17.3,27.6,N/A,Snow,Light Snow,320,2014-01-25 16:54:00
12:15 PM,21.0,13.1,71,29.42,2.5,NW,21.9,27.6,N/A,,Haze,320,2014-01-25 17:15:00
12:35 PM,21.0,12.9,71,29.43,2.5,NW,25.3,28.8,N/A,,Haze,310,2014-01-25 17:35:00
12:54 PM,19.2,13.3,78,29.44,1.0,NNW,21.9,28.8,N/A,Snow,Light Snow,330,2014-01-25 17:54:00
1:15 PM,19.4,8.6,63,29.45,3.0,NW,21.9,28.8,N/A,,Haze,310,2014-01-25 18:15:00
1:35 PM,18.5,6.8,60,29.46,5.0,NW,17.3,25.3,N/A,,Haze,310,2014-01-25 18:35:00
1:54 PM,17.2,7.2,65,29.47,2.0,NW,21.9,33.4,N/A,,Haze,310,2014-01-25 18:54:00
2:15 PM,17.8,6.3,61,29.48,4.0,NW,18.4,28.8,N/A,,Haze,310,2014-01-25 19:15:00
2:35 PM,17.1,7.3,66,29.49,3.0,WNW,21.9,29.9,N/A,,Haze,300,2014-01-25 19:35:00
2:54 PM,16.7,9.1,72,29.50,3.0,NW,16.1,20.7,N/A,Snow,Light Snow,310,2014-01-25 19:54:00
3:15 PM,16.7,8.8,71,29.52,7.0,NW,16.1,21.9,N/A,,Overcast,310,2014-01-25 20:15:00
3:35 PM,16.3,5.7,63,29.53,4.0,WNW,19.6,28.8,N/A,,Haze,300,2014-01-25 20:35:00
3:54 PM,15.6,4.8,62,29.54,4.0,WNW,20.7,29.9,N/A,,Haze,300,2014-01-25 20:54:00
4:15 PM,14.5,5.7,68,29.56,7.0,WNW,16.1,-,N/A,,Scattered Clouds,300,2014-01-25 21:15:00
4:35 PM,14.0,9.7,83,29.58,0.8,NW,17.3,29.9,N/A,Snow,Light Snow,310,2014-01-25 21:35:00
4:55 PM,13.5,6.8,75,29.59,7.0,NW,13.8,20.7,N/A,,Mostly Cloudy,320,2014-01-25 21:55:00
5:15 PM,13.8,4.3,66,29.60,10.0,WNW,11.5,-,N/A,,Mostly Cloudy,300,2014-01-25 22:15:00
5:34 PM,13.1,4.8,70,29.61,7.0,WNW,15.0,23.0,N/A,,Overcast,290,2014-01-25 22:34:00
5:55 PM,12.9,7.7,80,29.63,4.0,WNW,13.8,18.4,N/A,Snow,Light Snow,290,2014-01-25 22:55:00
6:14 PM,12.7,6.3,75,29.65,7.0,West,16.1,27.6,N/A,,Overcast,280,2014-01-25 23:14:00
6:35 PM,12.2,7.7,82,29.66,3.0,WNW,16.1,-,N/A,Snow,Light Snow,290,2014-01-25 23:35:00
6:55 PM,12.0,7.7,83,29.67,3.0,WNW,9.2,19.6,N/A,Snow,Light Snow,300,2014-01-25 23:55:00
7:14 PM,12.0,8.1,84,29.68,2.0,WNW,8.1,-,N/A,Snow,Light Snow,300,2014-01-26 00:14:00
7:35 PM,12.2,8.6,85,29.70,1.5,WNW,6.9,-,N/A,Snow,Light Snow,300,2014-01-26 00:35:00
7:54 PM,12.0,7.3,81,29.71,4.0,WNW,15.0,24.2,N/A,,Haze,300,2014-01-26 00:54:00
8:15 PM,12.0,7.5,82,29.71,2.5,WNW,12.7,18.4,N/A,Snow,Light Snow,300,2014-01-26 01:15:00
8:35 PM,11.8,7.3,82,29.72,2.5,WNW,13.8,18.4,N/A,Snow,Light Snow,300,2014-01-26 01:35:00
8:54 PM,11.5,7.7,85,29.72,2.5,NW,6.9,10.4,N/A,Snow,Light Snow,310,2014-01-26 01:54:00
9:15 PM,11.1,7.3,85,29.73,2.5,NW,9.2,-,N/A,Snow,Light Snow,310,2014-01-26 02:15:00
9:35 PM,10.8,6.8,84,29.73,2.5,NW,8.1,-,N/A,Snow,Light Snow,320,2014-01-26 02:35:00
9:54 PM,10.9,7.5,86,29.74,1.8,NW,6.9,-,N/A,Snow,Light Snow,310,2014-01-26 02:54:00
10:15 PM,11.1,7.5,85,29.75,2.5,NW,5.8,-,N/A,Snow,Light Snow,310,2014-01-26 03:15:00
10:35 PM,11.1,7.2,84,29.76,2.5,NW,5.8,-,N/A,Snow,Light Snow,310,2014-01-26 03:35:00
10:54 PM,10.9,6.8,83,29.75,3.0,NW,5.8,-,N/A,Snow,Light Snow,320,2014-01-26 03:54:00
11:15 PM,10.9,7.7,87,29.75,1.0,WNW,5.8,-,N/A,Snow,Snow,290,2014-01-26 04:15:00
11:35 PM,10.9,7.7,87,29.76,1.2,WNW,3.5,-,N/A,Snow,Light Snow,290,2014-01-26 04:35:00
11:54 PM,10.9,7.7,87,29.76,0.8,Calm,Calm,-,N/A,Snow,Snow,0,2014-01-26 04:54:00